AirNav   Pilot Hours Calculator
 
 971 users online  

7PS8 Bucktail Medical Center Heliport
South Renovo, Pennsylvania, USA

GOING TO SOUTH RENOVO?


FAA INFORMATION EFFECTIVE 07 NOVEMBER 2019

Location

FAA Identifier: 7PS8
Lat/Long: 41-19-37.8700N 077-44-10.3800W
41-19.631167N 077-44.173000W
41.3271861,-77.7362167
(estimated)
Elevation: 665 ft. / 203 m (estimated)
Variation: 10W (1985)
From city: 1 mile NE of SOUTH RENOVO, PA
Time zone: UTC -5 (UTC -4 during Daylight Saving Time)
Zip code: 17764

Heliport Operations

Heliport use: Private use, MEDICAL USE.
Activation date: 12/1987
Control tower: no
ARTCC: NEW YORK CENTER
FSS: WILLIAMSPORT FLIGHT SERVICE STATION
Attendance: CONTINUOUS
Wind indicator: lighted
Segmented circle: no
Lights: SS-SR

Nearby radio navigation aids

VOR radial/distance  VOR name  Freq  Var
SLTr145/15.3SLATE RUN VORTAC113.9008W
ETGr080/19.5KEATING VORTAC116.0010W
SFKr221/26.3STONYFORK VOR/DME108.6008W
PSBr035/27.2PHILIPSBURG VORTAC115.5010W

Heliport Services

Runway Information

Helipad H1

Dimensions: 65 x 65 ft. / 20 x 20 m
Surface: asphalt, in good condition
Latitude: 41-19.631167N
Longitude: 077-44.173000W
Elevation: 665.0 ft.
Traffic pattern: leftleft
Markings: none, in fair condition

Heliport Ownership and Management from official FAA records

Ownership: Privately-owned
Owner: BUCKTAIL MEDICAL CENTER
1001 PINE ST.
RENOVO, PA 17764
Phone 570-923-1000
Manager: DAVID KNAUFF
1001 PINE ST.
RENOVO, PA 17764
Phone (570) 531-6136

Additional Remarks

FOR CD CTC NEW YORK ARTCC AT 631-468-1425.

Instrument Procedures

There are no published instrument procedures at 7PS8.

Some nearby airports with instrument procedures:

KLHV - William T Piper Memorial Airport (18 nm SE)
N96 - Bellefonte Airport (27 nm S)
N38 - Wellsboro Johnston Airport (29 nm NE)
KUNV - University Park Airport (29 nm S)
KPSB - Mid-State Airport (31 nm SW)
 
Loc | Ops | Rwys | IFR | FBO | Links
Com | Nav | Svcs | Stats | Notes
Area around 7PS8 (Bucktail Medical Center Heliport)
 
Road maps at: MapQuest Bing Google
 
Aerial photo
No photo
 
Sectional chart

 
Airport distance calculator
Flying to Bucktail Medical Center Heliport? Find the distance to fly.

From to 7PS8

Sunrise and sunset
Times for 20-Nov-2019
 Local
(UTC-5)
 Zulu
(UTC)
Morning civil twilight06:3611:36
Sunrise07:0612:06
Sunset16:4721:47
Evening civil twilight17:1722:17

Current date and time
Zulu (UTC)  20-Nov-2019 12:35:45
Local (UTC-5)  20-Nov-2019 07:35:45
 
METAR
KN38 
28nm NE 
201215Z AUTO 34004KT 10SM BKN010 OVC014 02/00 A2997 RMK AO2
KUNV 
29nm S 
201202Z 32003KT 10SM SCT017 BKN030 OVC065 04/01 A3000
KOYM 
35nm W 
200934Z AUTO 28004KT 5SM BR OVC004 01/01 A2997 RMK AO2
KFIG 
35nm SW 
201220Z AUTO 31004KT 9SM SCT010 BKN041 OVC055 03/01 A3001 RMK AO2 T00280006
KIPT 
37nm E 
201154Z 24006KT 10SM OVC021 04/01 A2999 RMK AO2 SLP157 T00440006 10044 20028 53017
KRVL 
39nm S 
201215Z AUTO 00000KT 10SM OVC022 06/02 A3000 RMK AO2
KELZ 
48nm N 
201156Z AUTO 33007KT 7SM OVC008 01/00 A2998 RMK AO2 SLP172 T00110000 10011 20006 53018
KBFD 
49nm NW 
201153Z AUTO 33007KT 5SM BR OVC005 02/00 A2998 RMK AO2 SLP168 T00220000 10022 20011 53019
KSEG 
50nm SE 
201153Z AUTO 34003KT 9SM OVC025 03/02 A2999 RMK AO2 SLP160 T00330017 10033 20028 53017
TAF
KUNV 
29nm S 
201148Z 2012/2112 32007KT P6SM OVC040 FM201500 32008G15KT P6SM OVC050 FM202200 31007KT P6SM BKN050 FM210600 28004KT P6SM SCT050
NOTAMs
Click for the latest NOTAMs
NOTAMs are issued by the DoD/FAA and will open in a separate window not controlled by AirNav.

 

 
 

Would you like to see your business listed on this page?

 If your business provides an interesting product or service to pilots, flight crews, aircraft, or users of the Bucktail Medical Center Heliport, you should consider listing it here.  To start the listing process, click on the button below
 
Add a business
 

Other Pages about Bucktail Medical Center Heliport

Update a link
 
Copyright © AirNav, LLC. All rights reserved. Privacy Policy  Contact